createdAt,value
2023-11-21T00:00:26.244Z,145.40
2023-11-21T00:02:53.057Z,127.13
2023-11-21T00:05:19.894Z,109.60
2023-11-21T00:07:46.658Z,107.82
2023-11-21T00:10:14.913Z,111.82
2023-11-21T00:12:41.637Z,88.43
2023-11-21T00:15:09.065Z,106.15
2023-11-21T00:17:35.867Z,176.00
2023-11-21T00:20:02.694Z,76.70
2023-11-21T00:22:29.523Z,82.15
2023-11-21T00:24:56.311Z,68.10
2023-11-21T00:27:24.471Z,73.95
2023-11-21T00:29:51.198Z,75.40
2023-11-21T00:32:17.959Z,65.38
2023-11-21T00:34:44.696Z,72.97
2023-11-21T00:37:11.492Z,72.00
2023-11-21T00:39:38.297Z,63.55
2023-11-21T00:42:05.345Z,59.30
2023-11-21T00:44:33.477Z,65.35
2023-11-21T00:47:00.359Z,50.90
2023-11-21T00:49:27.264Z,55.70
2023-11-21T00:51:54.036Z,56.22
2023-11-21T00:54:20.722Z,61.90
2023-11-21T00:56:47.468Z,53.92
2023-11-21T00:59:14.180Z,47.95
2023-11-21T01:01:42.302Z,47.63
2023-11-21T01:04:09.047Z,52.28
2023-11-21T01:06:35.797Z,49.83
2023-11-21T01:09:02.517Z,47.53
2023-11-21T01:11:29.857Z,48.15
2023-11-21T01:13:56.566Z,51.70
2023-11-21T01:16:23.457Z,48.50
2023-11-21T01:18:51.562Z,42.35
2023-11-21T01:21:18.286Z,47.30
2023-11-21T01:23:45.055Z,43.28
2023-11-21T01:26:11.773Z,44.13
2023-11-21T01:28:38.546Z,40.63
2023-11-21T01:31:05.530Z,39.55
2023-11-21T01:33:32.431Z,46.30
2023-11-21T01:36:00.569Z,43.55
2023-11-21T01:38:27.304Z,45.50
2023-11-21T01:40:54.080Z,40.83
2023-11-21T01:43:20.865Z,33.80
2023-11-21T01:45:47.695Z,40.17
2023-11-21T01:48:14.573Z,42.55
2023-11-21T01:50:41.349Z,39.30
2023-11-21T01:53:09.480Z,41.97
2023-11-21T01:55:36.251Z,40.70
2023-11-21T01:58:03.047Z,40.92
2023-11-21T02:00:30.603Z,36.67
2023-11-21T02:02:57.820Z,37.75
2023-11-21T02:05:24.641Z,35.10
2023-11-21T02:07:51.390Z,39.70
2023-11-21T02:10:19.666Z,38.50
2023-11-21T02:12:46.373Z,35.72
2023-11-21T02:15:13.546Z,37.20
2023-11-21T02:17:40.652Z,34.97
2023-11-21T02:20:08.533Z,37.83
2023-11-21T02:22:35.381Z,33.80
2023-11-21T02:25:04.011Z,37.60
2023-11-21T02:27:30.710Z,40.80
2023-11-21T02:29:57.437Z,31.45
2023-11-21T02:32:24.199Z,34.90
2023-11-21T02:34:51.003Z,33.10
2023-11-21T02:37:17.847Z,31.88
2023-11-21T02:39:44.568Z,36.55
2023-11-21T02:42:12.667Z,30.88
2023-11-21T02:44:39.398Z,36.30
2023-11-21T02:47:06.267Z,32.35
2023-11-21T02:49:33.042Z,29.33
2023-11-21T02:51:59.810Z,29.50
2023-11-21T02:54:26.627Z,32.67
2023-11-21T02:56:53.386Z,29.98
2023-11-21T02:59:21.483Z,33.17
2023-11-21T03:01:48.267Z,29.92
2023-11-21T03:04:15.027Z,33.00
2023-11-21T03:06:41.764Z,31.67
2023-11-21T03:09:08.498Z,30.23
2023-11-21T03:11:35.205Z,32.50
2023-11-21T03:14:01.928Z,28.60
2023-11-21T03:16:30.049Z,30.40
2023-11-21T03:18:56.797Z,28.00
2023-11-21T03:21:23.541Z,34.83
2023-11-21T03:23:50.348Z,31.10
2023-11-21T03:26:17.109Z,31.02
2023-11-21T03:28:43.898Z,33.03
2023-11-21T03:31:10.669Z,28.67
2023-11-21T03:33:38.800Z,29.38
2023-11-21T03:36:06.029Z,29.42
2023-11-21T03:38:32.723Z,31.77
2023-11-21T03:40:59.403Z,31.88
2023-11-21T03:43:26.195Z,26.58
2023-11-21T03:45:52.962Z,23.95
2023-11-21T03:48:19.702Z,23.80
2023-11-21T03:50:47.872Z,25.67
2023-11-21T03:53:14.639Z,27.58
2023-11-21T03:55:41.383Z,26.95
2023-11-21T03:58:08.115Z,25.15
2023-11-21T04:00:34.837Z,25.25
2023-11-21T04:03:01.608Z,26.85
2023-11-21T04:05:28.605Z,30.30
2023-11-21T04:07:56.848Z,25.45
2023-11-21T04:10:23.632Z,27.60
2023-11-21T04:12:50.420Z,29.05
2023-11-21T04:15:17.164Z,28.92
2023-11-21T04:17:43.921Z,29.52
2023-11-21T04:20:11.563Z,24.63
2023-11-21T04:22:39.270Z,26.67
2023-11-21T04:25:08.998Z,25.90
2023-11-21T04:27:35.691Z,27.98
2023-11-21T04:30:02.484Z,30.23
2023-11-21T04:32:29.225Z,26.52
2023-11-21T04:34:55.949Z,27.67
2023-11-21T04:37:22.770Z,28.77
2023-11-21T04:39:49.492Z,34.83
2023-11-21T04:42:17.628Z,28.50
2023-11-21T04:44:44.427Z,43.08
2023-11-21T04:47:11.233Z,56.13
2023-11-21T04:49:38.001Z,44.65
2023-11-21T04:52:05.032Z,43.63
2023-11-21T04:54:31.917Z,59.90
2023-11-21T04:56:58.659Z,63.22
2023-11-21T04:59:26.773Z,40.63
2023-11-21T05:01:53.924Z,37.70
2023-11-21T05:04:20.779Z,28.80
2023-11-21T05:06:47.595Z,31.15
2023-11-21T05:09:14.375Z,28.98
2023-11-21T05:11:41.684Z,27.48
2023-11-21T05:14:08.539Z,26.95
2023-11-21T05:16:36.729Z,33.47
2023-11-21T05:19:03.511Z,36.17
2023-11-21T05:21:30.539Z,30.02
2023-11-21T05:23:57.260Z,28.50
2023-11-21T05:26:23.947Z,24.33
2023-11-21T05:28:50.730Z,27.77
2023-11-21T05:31:17.661Z,25.27
2023-11-21T05:33:45.818Z,22.50
2023-11-21T05:36:12.551Z,26.65
2023-11-21T05:38:39.282Z,24.45
2023-11-21T05:41:06.260Z,25.83
2023-11-21T05:43:33.058Z,22.63
2023-11-21T05:45:59.810Z,29.42
2023-11-21T05:48:26.577Z,25.58
2023-11-21T05:50:54.675Z,23.85
2023-11-21T05:53:21.372Z,28.17
2023-11-21T05:55:48.114Z,22.10
2023-11-21T05:58:15.067Z,19.77
2023-11-21T06:00:41.828Z,32.03
2023-11-21T06:03:08.717Z,23.60
2023-11-21T06:05:35.815Z,24.63
2023-11-21T06:08:04.308Z,26.85
2023-11-21T06:10:31.084Z,30.25
2023-11-21T06:12:58.777Z,32.28
2023-11-21T06:15:27.075Z,32.25
2023-11-21T06:17:54.407Z,29.85
2023-11-21T06:20:21.550Z,23.88
2023-11-21T06:22:49.124Z,25.83
2023-11-21T06:25:17.292Z,25.60
2023-11-21T06:27:44.684Z,28.45
2023-11-21T06:30:11.991Z,27.92
2023-11-21T06:32:38.764Z,34.20
2023-11-21T06:35:06.431Z,27.77
2023-11-21T06:37:33.346Z,30.42
2023-11-21T06:40:00.503Z,25.83
2023-11-21T06:42:28.759Z,28.98
2023-11-21T06:44:55.467Z,30.25
2023-11-21T06:47:22.320Z,31.90
2023-11-21T06:49:49.127Z,43.85
2023-11-21T06:52:15.848Z,46.55
2023-11-21T06:54:42.556Z,121.43
2023-11-21T06:57:09.297Z,148.18
2023-11-21T06:59:37.416Z,157.80
2023-11-21T07:02:04.510Z,107.28
2023-11-21T07:04:31.362Z,53.35
2023-11-21T07:06:58.103Z,27.25
2023-11-21T07:09:24.819Z,44.80
2023-11-21T07:11:51.593Z,23.13
2023-11-21T07:14:18.284Z,24.83
2023-11-21T07:16:46.408Z,24.48
2023-11-21T07:19:13.187Z,25.75
2023-11-21T07:21:39.984Z,21.77
2023-11-21T07:24:07.947Z,28.25
2023-11-21T07:26:34.820Z,27.60
2023-11-21T07:29:01.733Z,17.67
2023-11-21T07:31:28.634Z,23.45
2023-11-21T07:33:56.802Z,22.70
2023-11-21T07:36:23.531Z,99.70
2023-11-21T07:38:50.227Z,86.07
2023-11-21T07:41:28.093Z,138.23
2023-11-21T07:43:57.905Z,142.15
2023-11-21T07:46:24.769Z,152.23
2023-11-21T07:48:51.601Z,181.60
2023-11-21T07:51:19.704Z,48.95
2023-11-21T07:53:46.410Z,22.30
2023-11-21T07:56:14.679Z,72.00
2023-11-21T07:58:41.441Z,58.90
2023-11-21T08:01:08.256Z,30.98
2023-11-21T08:03:35.091Z,33.10
2023-11-21T08:06:01.942Z,26.80
2023-11-21T08:08:30.147Z,22.17
2023-11-21T08:10:56.885Z,17.50
2023-11-21T08:13:24.010Z,20.38
2023-11-21T08:15:50.993Z,22.25
2023-11-21T08:18:17.771Z,50.83
2023-11-21T08:20:45.208Z,81.53
2023-11-21T08:23:11.952Z,89.38
2023-11-21T08:25:40.097Z,96.00
2023-11-21T08:28:06.808Z,91.95
2023-11-21T08:30:33.523Z,93.68
2023-11-21T08:33:00.315Z,49.40
2023-11-21T08:35:27.276Z,35.65
2023-11-21T08:37:54.172Z,27.17
2023-11-21T08:40:21.053Z,18.17
2023-11-21T08:42:49.230Z,108.28
2023-11-21T08:45:16.125Z,68.38
2023-11-21T08:47:42.845Z,22.90
2023-11-21T08:50:10.575Z,25.13
2023-11-21T08:52:37.413Z,42.42
2023-11-21T08:55:05.328Z,30.20
2023-11-21T08:57:32.047Z,18.55
2023-11-21T09:00:00.254Z,18.15
2023-11-21T09:02:27.194Z,17.42
2023-11-21T09:04:54.067Z,18.48
2023-11-21T09:07:20.867Z,15.70
2023-11-21T09:09:47.554Z,16.05
2023-11-21T09:12:14.267Z,16.42
2023-11-21T09:14:41.037Z,16.23
2023-11-21T09:17:09.247Z,15.60
2023-11-21T09:19:36.047Z,13.50
2023-11-21T09:22:03.029Z,14.65
2023-11-21T09:24:29.772Z,15.88
2023-11-21T09:26:56.463Z,21.75
2023-11-21T09:29:23.208Z,26.02
2023-11-21T09:31:49.953Z,85.18
2023-11-21T09:34:18.163Z,49.15
2023-11-21T09:36:45.961Z,40.17
2023-11-21T09:39:12.695Z,32.40
2023-11-21T09:41:43.840Z,18.77
2023-11-21T09:44:10.709Z,20.70
2023-11-21T09:46:37.545Z,27.33
2023-11-21T09:49:04.660Z,20.48
2023-11-21T09:51:32.793Z,27.95
2023-11-21T09:53:59.541Z,26.15
2023-11-21T09:56:26.270Z,29.23
2023-11-21T09:58:53.713Z,30.65
2023-11-21T10:01:21.025Z,27.23
2023-11-21T10:03:47.833Z,31.80
2023-11-21T10:06:14.674Z,31.25
2023-11-21T10:08:49.947Z,37.20
2023-11-21T10:11:22.283Z,37.80
2023-11-21T10:13:49.109Z,53.65
2023-11-21T10:16:16.035Z,50.70
2023-11-21T10:18:42.775Z,37.85
2023-11-21T10:21:09.505Z,42.88
2023-11-21T10:23:36.242Z,46.15
2023-11-21T10:26:11.238Z,36.45
2023-11-21T10:28:42.846Z,31.60
2023-11-21T10:31:09.564Z,41.85
2023-11-21T10:33:36.271Z,44.22
2023-11-21T10:36:03.017Z,46.25
2023-11-21T10:38:29.816Z,35.30
2023-11-21T10:40:56.672Z,27.63
2023-11-21T10:43:27.238Z,27.20
2023-11-21T10:45:54.175Z,30.98
2023-11-21T10:48:20.927Z,22.45
2023-11-21T10:50:48.634Z,23.92
2023-11-21T10:53:15.795Z,24.52
2023-11-21T10:55:42.934Z,25.77
2023-11-21T10:58:09.676Z,25.17
2023-11-21T11:00:37.776Z,24.88
2023-11-21T11:03:04.755Z,24.20
2023-11-21T11:05:31.525Z,23.35
2023-11-21T11:08:00.406Z,22.80
2023-11-21T11:10:27.179Z,21.92
2023-11-21T11:12:54.551Z,32.05
2023-11-21T11:15:21.471Z,73.10
2023-11-21T11:17:49.685Z,82.13
2023-11-21T11:20:16.976Z,16.45
2023-11-21T11:22:47.458Z,16.25
2023-11-21T11:25:22.693Z,19.73
2023-11-21T11:27:53.668Z,16.95
2023-11-21T11:30:29.739Z,19.63
2023-11-21T11:33:01.728Z,21.80
2023-11-21T11:35:32.291Z,18.23
2023-11-21T11:37:59.082Z,14.80
2023-11-21T11:40:27.031Z,22.33
2023-11-21T11:42:57.786Z,15.90
2023-11-21T11:45:24.471Z,14.75
2023-11-21T11:47:57.283Z,15.75
2023-11-21T11:50:25.473Z,13.25
2023-11-21T11:52:52.716Z,17.83
2023-11-21T11:55:20.034Z,13.88
2023-11-21T11:57:47.153Z,19.92
2023-11-21T12:00:15.085Z,18.77
2023-11-21T12:02:41.965Z,14.98
2023-11-21T12:05:10.671Z,21.70
2023-11-21T12:07:44.318Z,20.60
2023-11-21T12:10:13.395Z,16.00
2023-11-21T12:12:43.630Z,13.65
2023-11-21T12:15:10.686Z,12.27
2023-11-21T12:17:38.106Z,13.50
2023-11-21T12:20:06.792Z,12.77
2023-11-21T12:22:33.558Z,13.27
2023-11-21T12:25:02.024Z,16.52
2023-11-21T12:27:28.898Z,16.95
2023-11-21T12:29:56.074Z,14.57
2023-11-21T12:32:23.238Z,13.38
2023-11-21T12:34:50.008Z,34.90
2023-11-21T12:37:16.775Z,22.98
2023-11-21T12:39:43.461Z,35.60
2023-11-21T12:42:11.711Z,26.65
2023-11-21T12:44:38.410Z,19.75
2023-11-21T12:47:05.161Z,14.85
2023-11-21T12:49:31.902Z,22.05
2023-11-21T12:51:58.975Z,21.73
2023-11-21T12:54:25.705Z,18.15
2023-11-21T12:56:52.401Z,17.83
2023-11-21T12:59:21.716Z,14.82
2023-11-21T13:01:48.621Z,14.65
2023-11-21T13:04:15.558Z,16.70
2023-11-21T13:06:42.578Z,18.35
2023-11-21T13:09:09.397Z,15.10
2023-11-21T13:11:36.092Z,23.00
2023-11-21T13:14:03.222Z,20.92
2023-11-21T13:16:31.386Z,26.23
2023-11-21T13:18:58.117Z,25.23
2023-11-21T13:21:24.845Z,29.73
2023-11-21T13:23:51.532Z,35.15
2023-11-21T13:26:18.273Z,36.08
2023-11-21T13:28:44.994Z,35.35
2023-11-21T13:31:12.340Z,39.75
2023-11-21T13:33:40.591Z,31.35
2023-11-21T13:36:07.684Z,29.13
2023-11-21T13:38:34.570Z,33.17
2023-11-21T13:41:01.283Z,33.78
2023-11-21T13:43:28.061Z,23.55
2023-11-21T13:45:54.899Z,24.38
2023-11-21T13:48:21.675Z,20.40
2023-11-21T13:50:49.950Z,23.98
2023-11-21T13:53:16.663Z,20.13
2023-11-21T13:55:43.452Z,18.95
2023-11-21T13:58:10.520Z,21.50
2023-11-21T14:00:37.214Z,23.90
2023-11-21T14:03:04.362Z,33.17
2023-11-21T14:05:31.358Z,26.17
2023-11-21T14:07:59.466Z,51.15
2023-11-21T14:10:26.201Z,48.25
2023-11-21T14:12:52.936Z,43.95
2023-11-21T14:15:19.647Z,47.53
2023-11-21T14:17:46.417Z,47.38
2023-11-21T14:20:13.241Z,48.42
2023-11-21T14:22:39.988Z,53.92
2023-11-21T14:25:08.781Z,70.32
2023-11-21T14:27:36.655Z,58.97
2023-11-21T14:30:03.975Z,45.05
2023-11-21T14:32:30.775Z,57.05
2023-11-21T14:34:57.567Z,57.88
2023-11-21T14:37:24.268Z,61.25
2023-11-21T14:39:51.232Z,71.53
2023-11-21T14:42:19.450Z,58.03
2023-11-21T14:44:46.124Z,53.20
2023-11-21T14:47:13.142Z,57.30
2023-11-21T14:49:40.007Z,49.83
2023-11-21T14:52:06.734Z,45.80
2023-11-21T14:54:33.575Z,51.58
2023-11-21T14:57:00.274Z,50.97
2023-11-21T14:59:28.347Z,74.38
2023-11-21T15:01:55.085Z,55.40
2023-11-21T15:04:22.126Z,45.67
2023-11-21T15:06:48.932Z,46.10
2023-11-21T15:09:15.620Z,47.92
2023-11-21T15:11:42.314Z,39.83
2023-11-21T15:14:09.035Z,44.30
2023-11-21T15:16:37.237Z,43.35
2023-11-21T15:19:04.068Z,37.03
2023-11-21T15:21:30.755Z,32.50
2023-11-21T15:23:57.446Z,36.20
2023-11-21T15:26:24.208Z,29.75
2023-11-21T15:28:50.900Z,50.75
2023-11-21T15:31:18.057Z,119.47
2023-11-21T15:33:46.226Z,133.52
2023-11-21T15:36:13.010Z,124.40
2023-11-21T15:38:39.674Z,76.68
2023-11-21T15:41:06.640Z,45.72
2023-11-21T15:43:33.381Z,39.65
2023-11-21T15:46:00.092Z,37.63
2023-11-21T15:48:26.823Z,33.30
2023-11-21T15:50:54.963Z,31.60
2023-11-21T15:53:21.768Z,28.90
2023-11-21T15:55:48.588Z,27.08
2023-11-21T15:58:15.329Z,26.50
2023-11-21T16:00:42.077Z,23.90
2023-11-21T16:03:08.906Z,23.70
2023-11-21T16:05:35.666Z,25.00
2023-11-21T16:08:04.039Z,24.88
2023-11-21T16:10:30.912Z,23.23
2023-11-21T16:12:57.647Z,29.10
2023-11-21T16:15:24.400Z,45.35
2023-11-21T16:17:51.128Z,38.08
2023-11-21T16:20:17.906Z,43.92
2023-11-21T16:22:44.639Z,32.78
2023-11-21T16:25:13.292Z,34.30
2023-11-21T16:27:40.081Z,36.00
2023-11-21T16:30:07.701Z,37.00
2023-11-21T16:32:34.933Z,36.75
2023-11-21T16:35:01.695Z,42.53
2023-11-21T16:37:28.402Z,40.85
2023-11-21T16:39:55.127Z,54.22
2023-11-21T16:42:23.253Z,48.78
2023-11-21T16:44:50.263Z,51.30
2023-11-21T16:47:17.113Z,60.42
2023-11-21T16:49:45.355Z,70.72
2023-11-21T16:52:12.054Z,64.38
2023-11-21T16:54:38.752Z,87.40
2023-11-21T16:57:06.054Z,110.68
2023-11-21T16:59:34.117Z,110.30
2023-11-21T17:02:00.923Z,91.45
2023-11-21T17:04:27.673Z,74.45
2023-11-21T17:06:54.374Z,59.38
2023-11-21T17:09:21.199Z,54.67
2023-11-21T17:11:49.332Z,48.85
2023-11-21T17:14:16.216Z,45.33
2023-11-21T17:16:44.470Z,35.22
2023-11-21T17:19:11.224Z,33.65
2023-11-21T17:21:37.887Z,30.25
2023-11-21T17:24:05.250Z,28.58
2023-11-21T17:26:31.953Z,29.80
2023-11-21T17:28:58.712Z,27.02
2023-11-21T17:31:25.462Z,39.85
2023-11-21T17:33:53.556Z,66.40
2023-11-21T17:36:20.250Z,95.20
2023-11-21T17:38:46.980Z,73.57
2023-11-21T17:41:13.725Z,121.72
2023-11-21T17:43:40.790Z,121.32
2023-11-21T17:46:07.636Z,91.43
2023-11-21T17:48:34.311Z,78.88
2023-11-21T17:51:02.385Z,179.63
2023-11-21T17:53:29.136Z,247.32
2023-11-21T17:55:55.875Z,150.90
2023-11-21T17:58:22.593Z,55.33
2023-11-21T18:00:49.330Z,41.80
2023-11-21T18:03:16.142Z,34.03
2023-11-21T18:05:42.899Z,34.30
2023-11-21T18:08:11.144Z,34.75
2023-11-21T18:10:37.870Z,27.45
2023-11-21T18:13:04.549Z,24.42
2023-11-21T18:15:31.284Z,21.85
2023-11-21T18:17:58.140Z,26.42
2023-11-21T18:20:25.011Z,20.92
2023-11-21T18:22:51.853Z,22.83
2023-11-21T18:25:19.924Z,20.83
2023-11-21T18:27:46.682Z,27.88
2023-11-21T18:30:13.926Z,23.15
2023-11-21T18:32:40.770Z,32.17
2023-11-21T18:35:08.082Z,24.52
2023-11-21T18:37:34.825Z,24.05
2023-11-21T18:40:01.621Z,23.27
2023-11-21T18:42:29.705Z,22.42
2023-11-21T18:44:59.525Z,24.88
2023-11-21T18:47:27.182Z,22.17
2023-11-21T18:49:53.983Z,27.58
2023-11-21T18:52:20.725Z,24.45
2023-11-21T18:54:47.419Z,29.42
2023-11-21T18:57:17.225Z,23.25
2023-11-21T18:59:46.393Z,20.42
2023-11-21T19:02:13.166Z,22.42
2023-11-21T19:04:39.884Z,23.48
2023-11-21T19:07:06.614Z,24.35
2023-11-21T19:09:33.319Z,30.40
2023-11-21T19:12:00.087Z,28.52
2023-11-21T19:14:29.833Z,32.10
2023-11-21T19:16:57.938Z,30.50
2023-11-21T19:19:24.704Z,29.50
2023-11-21T19:21:51.465Z,29.80
2023-11-21T19:24:18.143Z,26.27
2023-11-21T19:26:44.832Z,32.13
2023-11-21T19:29:11.716Z,35.78
2023-11-21T19:31:38.414Z,26.48
2023-11-21T19:34:06.707Z,30.38
2023-11-21T19:36:35.293Z,27.25
2023-11-21T19:39:01.968Z,28.15
2023-11-21T19:41:28.633Z,27.88
2023-11-21T19:43:55.397Z,27.73
2023-11-21T19:46:22.193Z,30.25
2023-11-21T19:48:48.960Z,29.88
2023-11-21T19:51:17.050Z,29.50
2023-11-21T19:53:43.752Z,30.40
2023-11-21T19:56:10.509Z,29.77
2023-11-21T19:58:37.376Z,26.08
2023-11-21T20:01:04.098Z,36.17
2023-11-21T20:03:30.872Z,47.97
2023-11-21T20:05:58.351Z,56.00
2023-11-21T20:08:26.459Z,69.10
2023-11-21T20:10:53.221Z,96.63
2023-11-21T20:13:19.999Z,72.28
2023-11-21T20:15:46.842Z,87.88
2023-11-21T20:18:13.647Z,74.18
2023-11-21T20:20:41.454Z,75.43
2023-11-21T20:23:08.467Z,79.15
2023-11-21T20:25:36.605Z,88.60
2023-11-21T20:28:03.419Z,97.28
2023-11-21T20:30:30.156Z,136.25
2023-11-21T20:32:56.915Z,133.38
2023-11-21T20:35:23.742Z,101.32
2023-11-21T20:37:50.564Z,115.80
2023-11-21T20:40:17.460Z,114.43
2023-11-21T20:42:45.556Z,128.98
2023-11-21T20:45:12.406Z,126.10
2023-11-21T20:47:39.256Z,97.88
2023-11-21T20:50:07.347Z,150.35
2023-11-21T20:52:34.085Z,147.60
2023-11-21T20:55:00.802Z,141.80
2023-11-21T20:57:27.576Z,123.47
2023-11-21T20:59:55.680Z,140.30
2023-11-21T21:02:22.383Z,132.98
2023-11-21T21:04:49.130Z,127.63
2023-11-21T21:07:15.875Z,130.98
2023-11-21T21:09:42.608Z,145.43
2023-11-21T21:12:09.595Z,238.65
2023-11-21T21:14:36.300Z,180.05
2023-11-21T21:17:04.933Z,174.57
2023-11-21T21:19:31.802Z,149.18
2023-11-21T21:21:58.528Z,118.10
2023-11-21T21:24:25.212Z,108.50
2023-11-21T21:26:51.987Z,133.95
2023-11-21T21:29:18.832Z,126.40
2023-11-21T21:31:45.554Z,112.63
2023-11-21T21:34:13.857Z,107.43
2023-11-21T21:36:40.568Z,104.22
2023-11-21T21:39:07.339Z,78.05
2023-11-21T21:41:34.453Z,89.47
2023-11-21T21:44:01.196Z,94.05
2023-11-21T21:46:27.975Z,97.20
2023-11-21T21:48:54.731Z,80.43
2023-11-21T21:51:22.862Z,77.75
2023-11-21T21:53:49.630Z,85.72
2023-11-21T21:56:20.178Z,96.53
2023-11-21T21:58:46.946Z,113.22
2023-11-21T22:01:13.658Z,127.40
2023-11-21T22:03:40.569Z,101.28
2023-11-21T22:06:07.389Z,115.93
2023-11-21T22:08:35.468Z,111.70
2023-11-21T22:11:02.263Z,130.50
2023-11-21T22:13:29.005Z,106.53
2023-11-21T22:15:55.749Z,108.65
2023-11-21T22:18:22.505Z,103.10
2023-11-21T22:20:49.252Z,99.13
2023-11-21T22:23:16.049Z,107.25
2023-11-21T22:25:44.171Z,106.97
2023-11-21T22:28:10.921Z,103.45
2023-11-21T22:30:37.629Z,102.97
2023-11-21T22:33:04.395Z,87.78
2023-11-21T22:35:31.130Z,94.63
2023-11-21T22:37:57.974Z,98.80
2023-11-21T22:40:24.833Z,97.05
2023-11-21T22:42:52.986Z,97.45
2023-11-21T22:45:19.934Z,92.78
2023-11-21T22:47:47.003Z,88.60
2023-11-21T22:50:13.866Z,89.53
2023-11-21T22:52:40.594Z,89.78
2023-11-21T22:55:08.156Z,94.35
2023-11-21T22:57:34.868Z,94.15
2023-11-21T23:00:03.636Z,82.78
2023-11-21T23:02:30.516Z,77.22
2023-11-21T23:04:57.393Z,84.53
2023-11-21T23:07:24.130Z,86.75
2023-11-21T23:09:50.886Z,85.93
2023-11-21T23:12:17.618Z,80.00
2023-11-21T23:14:44.339Z,84.25
2023-11-21T23:17:12.528Z,74.57
2023-11-21T23:19:44.640Z,65.13
2023-11-21T23:24:41.625Z,57.05
2023-11-21T23:27:08.349Z,57.63
2023-11-21T23:29:35.114Z,56.25
2023-11-21T23:32:01.854Z,51.00
2023-11-21T23:34:29.992Z,51.13
2023-11-21T23:36:56.725Z,44.63
2023-11-21T23:39:23.425Z,40.92
2023-11-21T23:41:50.122Z,43.35
2023-11-21T23:44:16.898Z,42.92
2023-11-21T23:46:43.689Z,40.50
2023-11-21T23:49:10.457Z,43.47
2023-11-21T23:51:38.583Z,46.10
2023-11-21T23:54:05.425Z,38.25
2023-11-21T23:56:32.176Z,42.05
2023-11-21T23:58:58.941Z,37.97
